createdAt,value
2023-04-26T00:03:00.971Z,2.89
2023-04-26T00:06:08.846Z,2.96
2023-04-26T00:09:13.781Z,2.94
2023-04-26T00:12:17.466Z,2.88
2023-04-26T00:15:21.054Z,2.84
2023-04-26T00:18:24.664Z,2.81
2023-04-26T00:21:28.641Z,2.78
2023-04-26T00:24:33.909Z,2.70
2023-04-26T00:27:37.547Z,2.67
2023-04-26T00:30:47.593Z,2.61
2023-04-26T00:33:52.803Z,2.58
2023-04-26T00:36:56.652Z,2.54
2023-04-26T00:40:01.644Z,2.54
2023-04-26T00:43:07.322Z,2.51
2023-04-26T00:46:11.454Z,2.43
2023-04-26T00:49:20.128Z,2.43
2023-04-26T00:52:25.180Z,2.35
2023-04-26T00:55:30.287Z,2.38
2023-04-26T00:58:34.334Z,2.39
2023-04-26T01:01:38.262Z,2.41
2023-04-26T01:04:42.776Z,2.38
2023-04-26T01:07:47.899Z,2.34
2023-04-26T01:10:54.591Z,2.34
2023-04-26T01:13:59.352Z,2.30
2023-04-26T01:17:05.720Z,2.27
2023-04-26T01:20:12.198Z,2.30
2023-04-26T01:23:17.163Z,2.30
2023-04-26T01:26:21.865Z,2.35
2023-04-26T01:29:25.587Z,2.43
2023-04-26T01:32:29.246Z,2.45
2023-04-26T01:35:33.600Z,2.50
2023-04-26T01:38:39.001Z,2.51
2023-04-26T01:41:42.616Z,2.57
2023-04-26T01:44:46.254Z,2.66
2023-04-26T01:47:50.281Z,2.73
2023-04-26T01:50:54.230Z,2.70
2023-04-26T01:53:59.402Z,2.65
2023-04-26T01:57:03.887Z,2.71
2023-04-26T02:00:09.873Z,2.62
2023-04-26T02:03:13.645Z,2.70
2023-04-26T02:06:17.270Z,2.72
2023-04-26T02:09:22.357Z,2.72
2023-04-26T02:12:25.965Z,2.71
2023-04-26T02:15:29.654Z,2.63
2023-04-26T02:18:33.175Z,2.52
2023-04-26T02:21:55.793Z,2.50
2023-04-26T02:25:00.854Z,2.43
2023-04-26T02:28:04.534Z,2.37
2023-04-26T02:31:08.209Z,2.32
2023-04-26T02:34:11.876Z,2.25
2023-04-26T02:37:15.511Z,2.23
2023-04-26T02:40:21.454Z,2.22
2023-04-26T02:43:25.029Z,2.27
2023-04-26T02:46:28.835Z,2.22
2023-04-26T02:49:32.671Z,2.15
2023-04-26T02:52:36.734Z,2.10
2023-04-26T02:55:41.739Z,2.06
2023-04-26T02:58:45.325Z,2.12
2023-04-26T03:01:48.939Z,2.13
2023-04-26T03:04:52.739Z,2.20
2023-04-26T03:07:57.538Z,2.23
2023-04-26T03:11:02.585Z,2.15
2023-04-26T03:14:06.252Z,2.25
2023-04-26T03:17:09.825Z,2.18
2023-04-26T03:20:14.341Z,2.30
2023-04-26T03:23:18.232Z,2.26
2023-04-26T03:26:23.154Z,2.27
2023-04-26T03:29:27.026Z,2.31
2023-04-26T03:32:30.617Z,2.29
2023-04-26T03:35:34.243Z,2.27
2023-04-26T03:38:37.780Z,2.29
2023-04-26T03:41:42.961Z,2.34
2023-04-26T03:44:46.666Z,2.33
2023-04-26T03:47:50.243Z,2.38
2023-04-26T03:50:53.924Z,2.34
2023-04-26T03:53:57.561Z,2.38
2023-04-26T03:57:02.530Z,2.39
2023-04-26T04:00:10.140Z,2.34
2023-04-26T04:03:14.087Z,2.24
2023-04-26T04:06:18.190Z,2.20
2023-04-26T04:09:21.777Z,2.12
2023-04-26T04:12:26.880Z,2.11
2023-04-26T04:15:30.655Z,2.08
2023-04-26T04:18:34.353Z,2.00
2023-04-26T04:21:37.933Z,1.94
2023-04-26T04:24:42.532Z,1.88
2023-04-26T04:27:47.842Z,1.81
2023-04-26T04:30:52.591Z,1.84
2023-04-26T04:33:56.284Z,1.80
2023-04-26T04:36:59.978Z,1.79
2023-04-26T04:40:04.138Z,1.88
2023-04-26T04:43:09.323Z,1.90
2023-04-26T04:46:13.240Z,1.99
2023-04-26T04:49:18.841Z,2.00
2023-04-26T04:52:22.825Z,2.01
2023-04-26T04:55:26.750Z,2.08
2023-04-26T04:58:31.753Z,2.09
2023-04-26T05:01:37.092Z,2.13
2023-04-26T05:04:41.240Z,2.23
2023-04-26T05:07:44.958Z,2.28
2023-04-26T05:10:48.524Z,2.37
2023-04-26T05:13:53.520Z,2.48
2023-04-26T05:16:57.617Z,2.52
2023-04-26T05:20:06.483Z,2.53
2023-04-26T05:23:10.131Z,2.51
2023-04-26T05:26:17.860Z,2.57
2023-04-26T05:29:23.136Z,2.66
2023-04-26T05:32:27.632Z,2.80
2023-04-26T05:35:31.269Z,3.00
2023-04-26T05:38:34.876Z,3.21
2023-04-26T05:41:38.492Z,3.50
2023-04-26T05:44:43.493Z,3.88
2023-04-26T05:47:47.654Z,3.94
2023-04-26T05:50:52.439Z,4.09
2023-04-26T05:53:57.477Z,4.37
2023-04-26T05:57:01.119Z,4.49
2023-04-26T06:00:09.712Z,4.87
2023-04-26T06:03:13.766Z,4.82
2023-04-26T06:06:18.671Z,4.63
2023-04-26T06:09:22.340Z,4.84
2023-04-26T06:12:26.034Z,5.10
2023-04-26T06:15:31.873Z,4.98
2023-04-26T06:18:35.702Z,5.01
2023-04-26T06:21:39.314Z,5.37
2023-04-26T06:24:42.894Z,5.54
2023-04-26T06:27:46.656Z,5.52
2023-04-26T06:30:51.800Z,5.72
2023-04-26T06:33:56.148Z,5.92
2023-04-26T06:37:00.774Z,5.93
2023-04-26T06:40:04.871Z,5.65
2023-04-26T06:43:08.599Z,5.81
2023-04-26T06:46:13.702Z,6.04
2023-04-26T06:49:17.387Z,5.95
2023-04-26T06:52:21.712Z,6.38
2023-04-26T06:55:25.976Z,5.90
2023-04-26T06:58:29.936Z,5.98
2023-04-26T07:01:36.714Z,6.21
2023-04-26T07:04:41.257Z,6.70
2023-04-26T07:07:45.840Z,7.03
2023-04-26T07:10:49.513Z,6.28
2023-04-26T07:13:53.443Z,6.10
2023-04-26T07:16:58.810Z,6.40
2023-04-26T07:20:02.491Z,6.52
2023-04-26T07:23:06.745Z,5.87
2023-04-26T07:26:12.365Z,5.86
2023-04-26T07:29:16.359Z,6.69
2023-04-26T07:32:21.340Z,6.63
2023-04-26T07:35:25.024Z,7.01
2023-04-26T07:38:29.125Z,7.44
2023-04-26T07:41:32.901Z,7.39
2023-04-26T07:44:36.573Z,6.95
2023-04-26T07:47:42.631Z,6.63
2023-04-26T07:50:46.422Z,6.31
2023-04-26T07:53:50.942Z,6.69
2023-04-26T07:56:54.743Z,6.69
2023-04-26T07:59:58.648Z,6.29
2023-04-26T08:03:03.799Z,6.37
2023-04-26T08:06:08.842Z,6.26
2023-04-26T08:09:12.714Z,6.37
2023-04-26T08:12:16.655Z,6.58
2023-04-26T08:15:20.658Z,6.63
2023-04-26T08:18:25.889Z,6.38
2023-04-26T08:21:29.517Z,6.20
2023-04-26T08:24:33.363Z,6.20
2023-04-26T08:27:37.546Z,6.53
2023-04-26T08:30:41.341Z,6.84
2023-04-26T08:33:46.495Z,7.43
2023-04-26T08:36:50.079Z,7.89
2023-04-26T08:39:54.037Z,7.94
2023-04-26T08:42:57.736Z,8.53
2023-04-26T08:46:02.683Z,8.68
2023-04-26T08:49:28.298Z,8.41
2023-04-26T08:52:33.330Z,8.16
2023-04-26T08:55:38.885Z,7.96
2023-04-26T08:58:42.908Z,7.79
2023-04-26T09:01:47.301Z,7.55
2023-04-26T09:04:53.239Z,7.34
2023-04-26T09:08:02.229Z,7.02
2023-04-26T09:11:06.006Z,6.57
2023-04-26T09:14:09.624Z,6.47
2023-04-26T09:17:28.092Z,7.17
2023-04-26T09:20:33.150Z,7.44
2023-04-26T09:23:37.226Z,7.60
2023-04-26T09:26:41.752Z,7.84
2023-04-26T09:30:00.945Z,7.49
2023-04-26T09:33:07.005Z,7.10
2023-04-26T09:36:15.430Z,6.58
2023-04-26T09:39:37.296Z,5.80
2023-04-26T09:42:41.026Z,5.77
2023-04-26T09:45:51.277Z,5.83
2023-04-26T09:49:03.731Z,6.08
2023-04-26T09:52:08.951Z,6.37
2023-04-26T09:55:19.062Z,6.37
2023-04-26T09:58:35.014Z,6.63
2023-04-26T10:01:40.162Z,6.99
2023-04-26T10:04:50.288Z,7.10
2023-04-26T10:07:55.667Z,7.43
2023-04-26T10:10:59.381Z,7.41
2023-04-26T10:14:03.510Z,7.59
2023-04-26T10:17:08.008Z,7.57
2023-04-26T10:20:15.380Z,7.30
2023-04-26T10:23:25.986Z,7.32
2023-04-26T10:26:51.706Z,7.65
2023-04-26T10:30:10.783Z,8.24
2023-04-26T10:33:17.440Z,8.54
2023-04-26T10:36:21.664Z,8.83
2023-04-26T10:39:28.292Z,8.70
2023-04-26T10:42:32.432Z,8.25
2023-04-26T10:45:37.401Z,7.07
2023-04-26T10:48:41.171Z,6.11
2023-04-26T10:52:16.420Z,5.71
2023-04-26T10:55:45.466Z,5.53
2023-04-26T10:58:49.107Z,5.04
2023-04-26T11:01:54.293Z,4.86
2023-04-26T11:04:59.125Z,5.26
2023-04-26T11:08:08.799Z,5.26
2023-04-26T11:11:14.738Z,5.20
2023-04-26T11:14:20.544Z,5.06
2023-04-26T11:17:24.106Z,5.33
2023-04-26T11:20:32.653Z,5.42
2023-04-26T11:23:37.367Z,5.84
2023-04-26T11:26:42.351Z,6.07
2023-04-26T11:29:45.866Z,6.14
2023-04-26T11:32:49.597Z,6.29
2023-04-26T11:35:57.494Z,6.81
2023-04-26T11:39:02.599Z,6.80
2023-04-26T11:42:12.244Z,7.30
2023-04-26T11:45:30.335Z,7.38
2023-04-26T11:48:36.720Z,7.53
2023-04-26T11:51:41.061Z,8.12
2023-04-26T11:54:45.072Z,8.46
2023-04-26T11:57:51.159Z,8.64
2023-04-26T12:00:59.458Z,8.33
2023-04-26T12:04:03.386Z,8.60
2023-04-26T12:07:07.364Z,8.11
2023-04-26T12:10:18.932Z,8.02
2023-04-26T12:13:26.332Z,6.85
2023-04-26T12:16:30.092Z,5.48
2023-04-26T12:19:35.150Z,5.38
2023-04-26T12:22:39.070Z,5.37
2023-04-26T12:25:54.867Z,5.64
2023-04-26T12:28:59.847Z,5.99
2023-04-26T12:32:04.434Z,6.19
2023-04-26T12:35:09.209Z,6.39
2023-04-26T12:38:13.710Z,6.55
2023-04-26T12:41:17.757Z,6.54
2023-04-26T12:44:22.939Z,7.16
2023-04-26T12:47:27.957Z,7.22
2023-04-26T12:50:31.615Z,7.35
2023-04-26T12:53:35.211Z,7.30
2023-04-26T12:56:43.736Z,7.67
2023-04-26T12:59:48.958Z,7.61
2023-04-26T13:02:52.777Z,7.93
2023-04-26T13:05:56.677Z,8.36
2023-04-26T13:09:00.301Z,7.64
2023-04-26T13:12:04.175Z,7.33
2023-04-26T13:15:11.350Z,6.65
2023-04-26T13:18:16.017Z,5.59
2023-04-26T13:21:20.228Z,5.18
2023-04-26T13:24:24.131Z,5.05
2023-04-26T13:27:30.502Z,5.10
2023-04-26T13:30:36.738Z,5.50
2023-04-26T13:33:40.321Z,5.88
2023-04-26T13:36:44.078Z,6.03
2023-04-26T13:39:48.015Z,6.28
2023-04-26T13:42:51.769Z,6.61
2023-04-26T13:45:56.898Z,6.92
2023-04-26T13:49:00.713Z,7.34
2023-04-26T13:52:04.447Z,7.54
2023-04-26T13:55:09.851Z,7.62
2023-04-26T13:58:13.843Z,7.97
2023-04-26T14:01:19.138Z,7.98
2023-04-26T14:04:23.545Z,7.96
2023-04-26T14:07:27.456Z,7.92
2023-04-26T14:10:31.142Z,7.92
2023-04-26T14:13:34.979Z,7.46
2023-04-26T14:16:40.258Z,7.70
2023-04-26T14:19:43.906Z,7.33
2023-04-26T14:22:49.487Z,7.07
2023-04-26T14:25:53.787Z,6.87
2023-04-26T14:28:57.361Z,7.02
2023-04-26T14:32:03.228Z,7.06
2023-04-26T14:35:07.951Z,7.12
2023-04-26T14:38:11.922Z,7.46
2023-04-26T14:41:19.460Z,7.60
2023-04-26T14:44:24.773Z,7.51
2023-04-26T14:47:30.412Z,7.59
2023-04-26T14:50:34.043Z,7.64
2023-04-26T14:53:38.804Z,7.63
2023-04-26T14:56:42.422Z,7.14
2023-04-26T14:59:46.178Z,6.99
2023-04-26T15:02:51.428Z,6.71
2023-04-26T15:05:55.315Z,6.63
2023-04-26T15:08:58.895Z,6.67
2023-04-26T15:12:04.827Z,6.72
2023-04-26T15:15:09.858Z,6.91
2023-04-26T15:18:14.935Z,6.86
2023-04-26T15:21:18.789Z,6.96
2023-04-26T15:24:22.587Z,7.10
2023-04-26T15:27:26.418Z,7.09
2023-04-26T15:30:31.072Z,7.00
2023-04-26T15:33:36.439Z,6.80
2023-04-26T15:36:40.672Z,6.85
2023-04-26T15:39:44.495Z,6.98
2023-04-26T15:42:48.889Z,7.00
2023-04-26T15:45:52.538Z,6.89
2023-04-26T15:48:57.579Z,7.12
2023-04-26T15:52:01.300Z,7.05
2023-04-26T15:55:07.220Z,7.06
2023-04-26T15:58:11.289Z,7.03
2023-04-26T16:01:15.501Z,7.14
2023-04-26T16:04:21.666Z,7.08
2023-04-26T16:07:25.776Z,7.06
2023-04-26T16:10:29.399Z,6.99
2023-04-26T16:13:33.683Z,6.87
2023-04-26T16:16:38.277Z,6.95
2023-04-26T16:19:43.432Z,6.81
2023-04-26T16:22:47.078Z,6.87
2023-04-26T16:25:51.034Z,6.73
2023-04-26T16:28:55.109Z,6.82
2023-04-26T16:31:58.831Z,6.76
2023-04-26T16:35:03.975Z,6.49
2023-04-26T16:38:07.820Z,6.42
2023-04-26T16:41:11.443Z,6.38
2023-04-26T16:44:16.192Z,6.31
2023-04-26T16:47:19.923Z,6.49
2023-04-26T16:50:25.937Z,6.52
2023-04-26T16:53:30.250Z,6.49
2023-04-26T16:56:34.033Z,6.62
2023-04-26T16:59:37.740Z,6.55
2023-04-26T17:02:42.163Z,6.64
2023-04-26T17:05:49.570Z,6.61
2023-04-26T17:08:53.243Z,6.69
2023-04-26T17:11:56.901Z,6.91
2023-04-26T17:15:04.270Z,7.11
2023-04-26T17:18:09.546Z,7.47
2023-04-26T17:21:14.604Z,7.38
2023-04-26T17:24:18.753Z,7.22
2023-04-26T17:27:24.788Z,7.23
2023-04-26T17:30:28.637Z,7.03
2023-04-26T17:33:32.781Z,6.94
2023-04-26T17:36:37.805Z,6.94
2023-04-26T17:39:41.440Z,6.86
2023-04-26T17:42:45.413Z,6.75
2023-04-26T17:45:49.397Z,6.59
2023-04-26T17:48:53.212Z,6.63
2023-04-26T17:51:58.268Z,6.60
2023-04-26T17:55:02.024Z,6.45
2023-04-26T17:58:05.941Z,6.49
2023-04-26T18:01:09.597Z,6.38
2023-04-26T18:04:13.452Z,6.45
2023-04-26T18:07:19.467Z,6.32
2023-04-26T18:10:23.277Z,6.25
2023-04-26T18:13:26.962Z,6.28
2023-04-26T18:16:30.697Z,6.18
2023-04-26T18:19:34.381Z,6.16
2023-04-26T18:22:39.562Z,6.06
2023-04-26T18:25:43.140Z,6.06
2023-04-26T18:28:47.082Z,6.01
2023-04-26T18:31:52.569Z,6.02
2023-04-26T18:34:56.144Z,5.97
2023-04-26T18:38:01.107Z,5.96
2023-04-26T18:41:04.741Z,5.90
2023-04-26T18:44:13.161Z,5.91
2023-04-26T18:47:17.679Z,5.81
2023-04-26T18:50:21.505Z,5.81
2023-04-26T18:53:26.569Z,5.84
2023-04-26T18:56:31.511Z,5.77
2023-04-26T18:59:35.215Z,5.69
2023-04-26T19:02:40.402Z,5.76
2023-04-26T19:05:44.390Z,5.71
2023-04-26T19:08:49.722Z,5.57
2023-04-26T19:11:53.279Z,5.49
2023-04-26T19:14:57.074Z,5.42
2023-04-26T19:18:00.757Z,5.33
2023-04-26T19:21:09.321Z,5.28
2023-04-26T19:24:14.253Z,5.25
2023-04-26T19:27:17.915Z,5.10
2023-04-26T19:30:22.128Z,5.02
2023-04-26T19:33:26.306Z,4.86
2023-04-26T19:36:29.903Z,4.87
2023-04-26T19:39:34.898Z,4.77
2023-04-26T19:42:41.917Z,4.74
2023-04-26T19:45:46.096Z,4.68
2023-04-26T19:48:49.722Z,4.67
2023-04-26T19:51:53.391Z,4.63
2023-04-26T19:54:58.689Z,4.66
2023-04-26T19:58:02.423Z,4.63
2023-04-26T20:01:06.495Z,4.65
2023-04-26T20:04:10.296Z,4.70
2023-04-26T20:07:13.882Z,4.75
2023-04-26T20:10:19.247Z,4.75
2023-04-26T20:13:23.479Z,4.70
2023-04-26T20:16:27.182Z,4.66
2023-04-26T20:19:30.993Z,4.62
2023-04-26T20:22:35.617Z,4.56
2023-04-26T20:25:41.051Z,4.55
2023-04-26T20:28:45.967Z,4.52
2023-04-26T20:31:49.692Z,4.56
2023-04-26T20:34:53.721Z,4.56
2023-04-26T20:37:57.786Z,4.52
2023-04-26T20:41:02.771Z,4.42
2023-04-26T20:44:06.623Z,4.38
2023-04-26T20:47:10.176Z,4.36
2023-04-26T20:50:13.975Z,4.37
2023-04-26T20:53:17.744Z,4.39
2023-04-26T20:56:22.782Z,4.40
2023-04-26T20:59:27.093Z,4.38
2023-04-26T21:02:30.764Z,4.32
2023-04-26T21:05:34.664Z,4.33
2023-04-26T21:08:38.277Z,4.34
2023-04-26T21:11:43.861Z,4.34
2023-04-26T21:14:47.950Z,4.29
2023-04-26T21:17:51.930Z,4.34
2023-04-26T21:20:56.799Z,4.34
2023-04-26T21:24:01.022Z,4.36
2023-04-26T21:27:06.232Z,4.35
2023-04-26T21:30:11.472Z,4.29
2023-04-26T21:33:15.981Z,4.16
2023-04-26T21:36:19.760Z,4.06
2023-04-26T21:39:23.628Z,3.99
2023-04-26T21:42:28.816Z,3.89
2023-04-26T21:45:32.421Z,3.84
2023-04-26T21:48:36.480Z,3.83
2023-04-26T21:51:40.136Z,3.81
2023-04-26T21:54:43.769Z,3.84
2023-04-26T21:57:48.925Z,3.76
2023-04-26T22:00:52.957Z,3.80
2023-04-26T22:03:56.758Z,3.75
2023-04-26T22:07:00.525Z,3.65
2023-04-26T22:10:04.306Z,3.57
2023-04-26T22:13:09.503Z,3.48
2023-04-26T22:16:13.097Z,3.36
2023-04-26T22:19:16.759Z,3.33
2023-04-26T22:22:20.413Z,3.29
2023-04-26T22:25:24.506Z,3.25
2023-04-26T22:28:29.468Z,3.13
2023-04-26T22:31:33.202Z,3.01
2023-04-26T22:34:36.943Z,2.99
2023-04-26T22:37:40.772Z,3.00
2023-04-26T22:40:44.466Z,2.85
2023-04-26T22:43:50.253Z,2.84
2023-04-26T22:46:56.952Z,2.77
2023-04-26T22:50:00.591Z,2.74
2023-04-26T22:53:04.165Z,2.66
2023-04-26T22:56:08.859Z,2.65
2023-04-26T22:59:13.948Z,2.66
2023-04-26T23:02:18.372Z,2.66
2023-04-26T23:05:21.941Z,2.54
2023-04-26T23:08:25.660Z,2.54
2023-04-26T23:11:29.388Z,2.44
2023-04-26T23:14:35.394Z,2.40
2023-04-26T23:17:41.776Z,2.42
2023-04-26T23:20:45.794Z,2.34
2023-04-26T23:23:49.316Z,2.36
2023-04-26T23:26:52.949Z,2.33
2023-04-26T23:29:59.465Z,2.31
2023-04-26T23:33:03.160Z,2.31
2023-04-26T23:36:08.287Z,2.33
2023-04-26T23:39:12.693Z,2.35
2023-04-26T23:42:16.533Z,2.34
2023-04-26T23:45:21.582Z,2.34
2023-04-26T23:48:25.182Z,2.32
2023-04-26T23:51:28.802Z,2.27
2023-04-26T23:54:32.405Z,2.24
2023-04-26T23:57:36.498Z,2.25
